sensor_id;sensor_type;location;lat;lon;timestamp;temperature;humidity
11122;DHT22;5615;49.304;10.576;2023-08-30T00:00:20;12.40;99.90
11122;DHT22;5615;49.304;10.576;2023-08-30T00:02:47;12.40;99.90
11122;DHT22;5615;49.304;10.576;2023-08-30T00:05:14;12.40;99.90
11122;DHT22;5615;49.304;10.576;2023-08-30T00:07:41;12.50;99.90
11122;DHT22;5615;49.304;10.576;2023-08-30T00:10:07;12.40;99.90
11122;DHT22;5615;49.304;10.576;2023-08-30T00:12:36;12.50;99.90
11122;DHT22;5615;49.304;10.576;2023-08-30T00:15:05;12.40;99.90
11122;DHT22;5615;49.304;10.576;2023-08-30T00:17:31;12.40;99.90
11122;DHT22;5615;49.304;10.576;2023-08-30T00:19:58;12.40;99.90
11122;DHT22;5615;49.304;10.576;2023-08-30T00:22:26;12.50;99.90
11122;DHT22;5615;49.304;10.576;2023-08-30T00:24:54;12.40;99.90
11122;DHT22;5615;49.304;10.576;2023-08-30T00:27:20;12.40;99.90
11122;DHT22;5615;49.304;10.576;2023-08-30T00:29:47;12.40;99.90
11122;DHT22;5615;49.304;10.576;2023-08-30T00:32:15;12.40;99.90
11122;DHT22;5615;49.304;10.576;2023-08-30T00:34:42;12.40;99.90
11122;DHT22;5615;49.304;10.576;2023-08-30T00:37:08;12.40;99.90
11122;DHT22;5615;49.304;10.576;2023-08-30T00:39:37;12.50;99.90
11122;DHT22;5615;49.304;10.576;2023-08-30T00:42:05;12.60;99.90
11122;DHT22;5615;49.304;10.576;2023-08-30T00:44:32;12.60;99.90
11122;DHT22;5615;49.304;10.576;2023-08-30T00:46:59;12.70;99.90
11122;DHT22;5615;49.304;10.576;2023-08-30T00:49:28;12.70;99.90
11122;DHT22;5615;49.304;10.576;2023-08-30T00:51:55;12.70;99.90
11122;DHT22;5615;49.304;10.576;2023-08-30T00:54:22;12.70;99.90
11122;DHT22;5615;49.304;10.576;2023-08-30T00:56:49;12.70;99.90
11122;DHT22;5615;49.304;10.576;2023-08-30T00:59:17;12.70;99.90
11122;DHT22;5615;49.304;10.576;2023-08-30T01:01:43;12.70;99.90
11122;DHT22;5615;49.304;10.576;2023-08-30T01:04:11;12.70;99.90
11122;DHT22;5615;49.304;10.576;2023-08-30T01:06:39;12.70;99.90
11122;DHT22;5615;49.304;10.576;2023-08-30T01:09:06;12.70;99.90
11122;DHT22;5615;49.304;10.576;2023-08-30T01:11:38;12.70;99.90
11122;DHT22;5615;49.304;10.576;2023-08-30T01:14:08;12.70;99.90
11122;DHT22;5615;49.304;10.576;2023-08-30T01:16:35;12.70;99.90
11122;DHT22;5615;49.304;10.576;2023-08-30T01:19:10;12.70;99.90
11122;DHT22;5615;49.304;10.576;2023-08-30T01:21:50;12.70;99.90
11122;DHT22;5615;49.304;10.576;2023-08-30T01:24:26;12.60;99.90
11122;DHT22;5615;49.304;10.576;2023-08-30T01:27:08;12.60;99.90
11122;DHT22;5615;49.304;10.576;2023-08-30T01:29:35;12.60;99.90
11122;DHT22;5615;49.304;10.576;2023-08-30T01:32:03;12.60;99.90
11122;DHT22;5615;49.304;10.576;2023-08-30T01:34:31;12.60;99.90
11122;DHT22;5615;49.304;10.576;2023-08-30T01:36:59;12.60;99.90
11122;DHT22;5615;49.304;10.576;2023-08-30T01:39:26;12.60;99.90
11122;DHT22;5615;49.304;10.576;2023-08-30T01:41:55;12.60;99.90
11122;DHT22;5615;49.304;10.576;2023-08-30T01:44:26;12.60;99.90
11122;DHT22;5615;49.304;10.576;2023-08-30T01:46:54;12.70;99.90
11122;DHT22;5615;49.304;10.576;2023-08-30T01:49:21;12.70;99.90
11122;DHT22;5615;49.304;10.576;2023-08-30T01:51:50;12.70;99.90
11122;DHT22;5615;49.304;10.576;2023-08-30T01:54:18;12.70;99.90
11122;DHT22;5615;49.304;10.576;2023-08-30T01:56:45;12.70;99.90
11122;DHT22;5615;49.304;10.576;2023-08-30T01:59:12;12.70;99.90
11122;DHT22;5615;49.304;10.576;2023-08-30T02:01:40;12.80;99.90
11122;DHT22;5615;49.304;10.576;2023-08-30T02:04:07;12.80;99.90
11122;DHT22;5615;49.304;10.576;2023-08-30T02:06:37;12.80;99.90
11122;DHT22;5615;49.304;10.576;2023-08-30T02:09:12;12.80;99.90
11122;DHT22;5615;49.304;10.576;2023-08-30T02:11:42;12.80;99.90
11122;DHT22;5615;49.304;10.576;2023-08-30T02:14:11;12.80;99.90
11122;DHT22;5615;49.304;10.576;2023-08-30T02:16:45;12.80;99.90
11122;DHT22;5615;49.304;10.576;2023-08-30T02:19:12;12.80;99.90
11122;DHT22;5615;49.304;10.576;2023-08-30T02:21:42;12.70;99.90
11122;DHT22;5615;49.304;10.576;2023-08-30T02:24:09;12.70;99.90
11122;DHT22;5615;49.304;10.576;2023-08-30T02:26:35;12.80;99.90
11122;DHT22;5615;49.304;10.576;2023-08-30T02:29:03;12.70;99.90
11122;DHT22;5615;49.304;10.576;2023-08-30T02:31:29;12.70;99.90
11122;DHT22;5615;49.304;10.576;2023-08-30T02:33:57;12.70;99.90
11122;DHT22;5615;49.304;10.576;2023-08-30T02:36:24;12.70;99.90
11122;DHT22;5615;49.304;10.576;2023-08-30T02:38:50;12.70;99.90
11122;DHT22;5615;49.304;10.576;2023-08-30T02:41:17;12.60;99.90
11122;DHT22;5615;49.304;10.576;2023-08-30T02:43:44;12.60;99.90
11122;DHT22;5615;49.304;10.576;2023-08-30T02:46:10;12.60;99.90
11122;DHT22;5615;49.304;10.576;2023-08-30T02:48:37;12.60;99.90
11122;DHT22;5615;49.304;10.576;2023-08-30T02:51:05;12.60;99.90
11122;DHT22;5615;49.304;10.576;2023-08-30T02:53:31;12.60;99.90
11122;DHT22;5615;49.304;10.576;2023-08-30T02:55:58;12.60;99.90
11122;DHT22;5615;49.304;10.576;2023-08-30T02:58:25;12.60;99.90
11122;DHT22;5615;49.304;10.576;2023-08-30T03:00:52;12.60;99.90
11122;DHT22;5615;49.304;10.576;2023-08-30T03:03:19;12.60;99.90
11122;DHT22;5615;49.304;10.576;2023-08-30T03:05:45;12.60;99.90
11122;DHT22;5615;49.304;10.576;2023-08-30T03:08:13;12.60;99.90
11122;DHT22;5615;49.304;10.576;2023-08-30T03:10:40;12.60;99.90
11122;DHT22;5615;49.304;10.576;2023-08-30T03:13:07;12.60;99.90
11122;DHT22;5615;49.304;10.576;2023-08-30T03:15:33;12.50;99.90
11122;DHT22;5615;49.304;10.576;2023-08-30T03:18:00;12.50;99.90
11122;DHT22;5615;49.304;10.576;2023-08-30T03:20:27;12.50;99.90
11122;DHT22;5615;49.304;10.576;2023-08-30T03:22:56;12.40;99.90
11122;DHT22;5615;49.304;10.576;2023-08-30T03:25:24;12.40;99.90
11122;DHT22;5615;49.304;10.576;2023-08-30T03:27:51;12.30;99.90
11122;DHT22;5615;49.304;10.576;2023-08-30T03:30:18;12.30;99.90
11122;DHT22;5615;49.304;10.576;2023-08-30T03:32:44;12.30;99.90
11122;DHT22;5615;49.304;10.576;2023-08-30T03:35:11;12.30;99.90
11122;DHT22;5615;49.304;10.576;2023-08-30T03:37:40;12.30;99.90
11122;DHT22;5615;49.304;10.576;2023-08-30T03:40:07;12.30;99.90
11122;DHT22;5615;49.304;10.576;2023-08-30T03:42:36;12.40;99.90
11122;DHT22;5615;49.304;10.576;2023-08-30T03:45:03;12.40;99.90
11122;DHT22;5615;49.304;10.576;2023-08-30T03:47:31;12.40;99.90
11122;DHT22;5615;49.304;10.576;2023-08-30T03:49:57;12.40;99.90
11122;DHT22;5615;49.304;10.576;2023-08-30T03:52:24;12.40;99.90
11122;DHT22;5615;49.304;10.576;2023-08-30T03:54:50;12.30;99.90
11122;DHT22;5615;49.304;10.576;2023-08-30T03:57:17;12.30;99.90
11122;DHT22;5615;49.304;10.576;2023-08-30T03:59:45;12.30;99.90
11122;DHT22;5615;49.304;10.576;2023-08-30T04:02:12;12.20;99.90
11122;DHT22;5615;49.304;10.576;2023-08-30T04:04:39;12.20;99.90
11122;DHT22;5615;49.304;10.576;2023-08-30T04:07:05;12.10;99.90
11122;DHT22;5615;49.304;10.576;2023-08-30T04:09:32;12.00;99.90
11122;DHT22;5615;49.304;10.576;2023-08-30T04:11:58;12.00;99.90
11122;DHT22;5615;49.304;10.576;2023-08-30T04:14:26;11.90;99.90
11122;DHT22;5615;49.304;10.576;2023-08-30T04:16:53;11.90;99.90
11122;DHT22;5615;49.304;10.576;2023-08-30T04:19:20;11.80;99.90
11122;DHT22;5615;49.304;10.576;2023-08-30T04:21:47;11.90;99.90
11122;DHT22;5615;49.304;10.576;2023-08-30T04:24:14;11.80;99.90
11122;DHT22;5615;49.304;10.576;2023-08-30T04:26:41;11.80;99.90
11122;DHT22;5615;49.304;10.576;2023-08-30T04:29:07;11.70;99.90
11122;DHT22;5615;49.304;10.576;2023-08-30T04:31:34;11.70;99.90
11122;DHT22;5615;49.304;10.576;2023-08-30T04:34:02;11.70;99.90
11122;DHT22;5615;49.304;10.576;2023-08-30T04:36:28;11.70;99.90
11122;DHT22;5615;49.304;10.576;2023-08-30T04:38:55;11.70;99.90
11122;DHT22;5615;49.304;10.576;2023-08-30T04:41:22;11.70;99.90
11122;DHT22;5615;49.304;10.576;2023-08-30T04:43:48;11.80;99.90
11122;DHT22;5615;49.304;10.576;2023-08-30T04:46:15;11.80;99.90
11122;DHT22;5615;49.304;10.576;2023-08-30T04:48:41;11.80;99.90
11122;DHT22;5615;49.304;10.576;2023-08-30T04:51:09;11.80;99.90
11122;DHT22;5615;49.304;10.576;2023-08-30T04:53:36;11.80;99.90
11122;DHT22;5615;49.304;10.576;2023-08-30T04:56:10;11.80;99.90
11122;DHT22;5615;49.304;10.576;2023-08-30T04:58:37;11.90;99.90
11122;DHT22;5615;49.304;10.576;2023-08-30T05:01:04;11.90;99.90
11122;DHT22;5615;49.304;10.576;2023-08-30T05:03:32;11.90;99.90
11122;DHT22;5615;49.304;10.576;2023-08-30T05:05:58;11.90;99.90
11122;DHT22;5615;49.304;10.576;2023-08-30T05:08:26;11.90;99.90
11122;DHT22;5615;49.304;10.576;2023-08-30T05:10:53;11.90;99.90
11122;DHT22;5615;49.304;10.576;2023-08-30T05:13:20;12.00;99.90
11122;DHT22;5615;49.304;10.576;2023-08-30T05:15:47;12.00;99.90
11122;DHT22;5615;49.304;10.576;2023-08-30T05:18:13;12.00;99.90
11122;DHT22;5615;49.304;10.576;2023-08-30T05:20:40;12.00;99.90
11122;DHT22;5615;49.304;10.576;2023-08-30T05:23:07;12.10;99.90
11122;DHT22;5615;49.304;10.576;2023-08-30T05:25:35;12.20;99.90
11122;DHT22;5615;49.304;10.576;2023-08-30T05:28:02;12.20;99.90
11122;DHT22;5615;49.304;10.576;2023-08-30T05:30:28;12.20;99.90
11122;DHT22;5615;49.304;10.576;2023-08-30T05:32:55;12.30;99.90
11122;DHT22;5615;49.304;10.576;2023-08-30T05:35:22;12.30;99.90
11122;DHT22;5615;49.304;10.576;2023-08-30T05:37:48;12.40;99.90
11122;DHT22;5615;49.304;10.576;2023-08-30T05:40:16;12.40;99.90
11122;DHT22;5615;49.304;10.576;2023-08-30T05:42:44;12.50;99.90
11122;DHT22;5615;49.304;10.576;2023-08-30T05:45:11;12.70;99.90
11122;DHT22;5615;49.304;10.576;2023-08-30T05:47:38;12.70;99.90
11122;DHT22;5615;49.304;10.576;2023-08-30T05:50:05;12.90;99.90
11122;DHT22;5615;49.304;10.576;2023-08-30T05:52:32;13.00;99.90
11122;DHT22;5615;49.304;10.576;2023-08-30T05:54:58;13.10;99.90
11122;DHT22;5615;49.304;10.576;2023-08-30T05:57:25;13.20;99.90
11122;DHT22;5615;49.304;10.576;2023-08-30T05:59:55;13.30;99.90
11122;DHT22;5615;49.304;10.576;2023-08-30T06:02:22;13.40;99.90
11122;DHT22;5615;49.304;10.576;2023-08-30T06:04:48;13.40;99.90
11122;DHT22;5615;49.304;10.576;2023-08-30T06:07:15;13.40;99.90
11122;DHT22;5615;49.304;10.576;2023-08-30T06:09:42;13.50;99.90
11122;DHT22;5615;49.304;10.576;2023-08-30T06:12:09;13.50;99.90
11122;DHT22;5615;49.304;10.576;2023-08-30T06:14:35;13.60;99.90
11122;DHT22;5615;49.304;10.576;2023-08-30T06:17:04;13.50;99.90
11122;DHT22;5615;49.304;10.576;2023-08-30T06:19:30;13.60;99.90
11122;DHT22;5615;49.304;10.576;2023-08-30T06:21:57;13.80;99.90
11122;DHT22;5615;49.304;10.576;2023-08-30T06:24:22;13.80;99.90
11122;DHT22;5615;49.304;10.576;2023-08-30T06:26:49;13.90;99.90
11122;DHT22;5615;49.304;10.576;2023-08-30T06:29:16;13.80;99.90
11122;DHT22;5615;49.304;10.576;2023-08-30T06:31:42;13.90;99.90
11122;DHT22;5615;49.304;10.576;2023-08-30T06:34:12;13.90;99.90
11122;DHT22;5615;49.304;10.576;2023-08-30T06:36:38;13.80;99.90
11122;DHT22;5615;49.304;10.576;2023-08-30T06:39:05;13.80;99.90
11122;DHT22;5615;49.304;10.576;2023-08-30T06:41:31;13.90;99.90
11122;DHT22;5615;49.304;10.576;2023-08-30T06:43:58;13.90;99.90
11122;DHT22;5615;49.304;10.576;2023-08-30T06:46:25;14.00;99.90
11122;DHT22;5615;49.304;10.576;2023-08-30T06:48:51;14.20;99.90
11122;DHT22;5615;49.304;10.576;2023-08-30T06:51:19;14.20;99.90
11122;DHT22;5615;49.304;10.576;2023-08-30T06:53:46;14.10;99.90
11122;DHT22;5615;49.304;10.576;2023-08-30T06:56:13;14.20;99.90
11122;DHT22;5615;49.304;10.576;2023-08-30T06:58:40;14.40;99.90
11122;DHT22;5615;49.304;10.576;2023-08-30T07:01:06;14.30;99.90
11122;DHT22;5615;49.304;10.576;2023-08-30T07:03:33;14.30;99.90
11122;DHT22;5615;49.304;10.576;2023-08-30T07:05:59;14.30;99.90
11122;DHT22;5615;49.304;10.576;2023-08-30T07:08:27;14.40;99.90
11122;DHT22;5615;49.304;10.576;2023-08-30T07:10:54;14.40;99.90
11122;DHT22;5615;49.304;10.576;2023-08-30T07:13:21;14.50;99.90
11122;DHT22;5615;49.304;10.576;2023-08-30T07:15:47;14.50;99.90
11122;DHT22;5615;49.304;10.576;2023-08-30T07:18:14;14.60;99.90
11122;DHT22;5615;49.304;10.576;2023-08-30T07:20:40;14.50;99.90
11122;DHT22;5615;49.304;10.576;2023-08-30T07:23:07;14.70;99.90
11122;DHT22;5615;49.304;10.576;2023-08-30T07:25:37;14.80;99.90
11122;DHT22;5615;49.304;10.576;2023-08-30T07:28:04;14.90;99.90
11122;DHT22;5615;49.304;10.576;2023-08-30T07:30:31;14.90;99.90
11122;DHT22;5615;49.304;10.576;2023-08-30T07:33:00;14.90;99.90
11122;DHT22;5615;49.304;10.576;2023-08-30T07:35:27;15.00;99.90
11122;DHT22;5615;49.304;10.576;2023-08-30T07:37:54;15.10;99.90
11122;DHT22;5615;49.304;10.576;2023-08-30T07:40:20;15.20;99.90
11122;DHT22;5615;49.304;10.576;2023-08-30T07:42:51;15.10;99.90
11122;DHT22;5615;49.304;10.576;2023-08-30T07:45:17;15.10;99.90
11122;DHT22;5615;49.304;10.576;2023-08-30T07:47:44;15.20;99.90
11122;DHT22;5615;49.304;10.576;2023-08-30T07:50:11;15.20;99.90
11122;DHT22;5615;49.304;10.576;2023-08-30T07:52:37;15.30;99.90
11122;DHT22;5615;49.304;10.576;2023-08-30T07:55:04;15.40;99.90
11122;DHT22;5615;49.304;10.576;2023-08-30T07:57:31;15.50;99.90
11122;DHT22;5615;49.304;10.576;2023-08-30T07:59:59;15.60;99.90
11122;DHT22;5615;49.304;10.576;2023-08-30T08:02:25;15.80;99.90
11122;DHT22;5615;49.304;10.576;2023-08-30T08:04:52;15.80;99.90
11122;DHT22;5615;49.304;10.576;2023-08-30T08:07:19;15.70;99.90
11122;DHT22;5615;49.304;10.576;2023-08-30T08:09:45;15.60;99.90
11122;DHT22;5615;49.304;10.576;2023-08-30T08:12:12;16.10;99.90
11122;DHT22;5615;49.304;10.576;2023-08-30T08:14:38;16.30;99.90
11122;DHT22;5615;49.304;10.576;2023-08-30T08:17:06;16.30;99.90
11122;DHT22;5615;49.304;10.576;2023-08-30T08:19:33;16.30;99.90
11122;DHT22;5615;49.304;10.576;2023-08-30T08:22:04;16.40;99.90
11122;DHT22;5615;49.304;10.576;2023-08-30T08:24:31;16.40;99.90
11122;DHT22;5615;49.304;10.576;2023-08-30T08:26:57;16.60;99.90
11122;DHT22;5615;49.304;10.576;2023-08-30T08:29:26;16.80;99.90
11122;DHT22;5615;49.304;10.576;2023-08-30T08:31:53;16.70;99.90
11122;DHT22;5615;49.304;10.576;2023-08-30T08:34:21;16.70;99.90
11122;DHT22;5615;49.304;10.576;2023-08-30T08:36:47;17.00;99.90
11122;DHT22;5615;49.304;10.576;2023-08-30T08:39:14;17.10;99.90
11122;DHT22;5615;49.304;10.576;2023-08-30T08:41:43;16.90;99.90
11122;DHT22;5615;49.304;10.576;2023-08-30T08:44:10;16.80;99.90
11122;DHT22;5615;49.304;10.576;2023-08-30T08:46:40;16.90;99.90
11122;DHT22;5615;49.304;10.576;2023-08-30T08:49:09;16.90;99.90
11122;DHT22;5615;49.304;10.576;2023-08-30T08:51:39;17.00;99.90
11122;DHT22;5615;49.304;10.576;2023-08-30T08:54:06;17.00;99.90
11122;DHT22;5615;49.304;10.576;2023-08-30T08:56:35;16.90;99.90
11122;DHT22;5615;49.304;10.576;2023-08-30T08:59:01;17.20;99.90
11122;DHT22;5615;49.304;10.576;2023-08-30T09:01:29;17.30;99.90
11122;DHT22;5615;49.304;10.576;2023-08-30T09:03:56;17.50;99.90
11122;DHT22;5615;49.304;10.576;2023-08-30T09:06:24;17.20;99.90
11122;DHT22;5615;49.304;10.576;2023-08-30T09:08:52;17.30;99.90
11122;DHT22;5615;49.304;10.576;2023-08-30T09:11:19;17.70;99.90
11122;DHT22;5615;49.304;10.576;2023-08-30T09:13:45;17.80;99.90
11122;DHT22;5615;49.304;10.576;2023-08-30T09:16:13;18.10;99.90
11122;DHT22;5615;49.304;10.576;2023-08-30T09:18:40;18.10;99.90
11122;DHT22;5615;49.304;10.576;2023-08-30T09:21:07;18.30;99.90
11122;DHT22;5615;49.304;10.576;2023-08-30T09:23:34;18.90;99.90
11122;DHT22;5615;49.304;10.576;2023-08-30T09:26:02;19.10;99.90
11122;DHT22;5615;49.304;10.576;2023-08-30T09:28:29;18.70;99.90
11122;DHT22;5615;49.304;10.576;2023-08-30T09:30:58;18.50;99.90
11122;DHT22;5615;49.304;10.576;2023-08-30T09:33:31;19.00;99.90
11122;DHT22;5615;49.304;10.576;2023-08-30T09:35:58;19.10;99.90
11122;DHT22;5615;49.304;10.576;2023-08-30T09:38:25;19.70;99.90
11122;DHT22;5615;49.304;10.576;2023-08-30T09:40:52;20.20;99.90
11122;DHT22;5615;49.304;10.576;2023-08-30T09:43:32;20.30;99.90
11122;DHT22;5615;49.304;10.576;2023-08-30T09:46:03;19.90;99.90
11122;DHT22;5615;49.304;10.576;2023-08-30T09:48:30;19.60;99.90
11122;DHT22;5615;49.304;10.576;2023-08-30T09:50:58;19.20;99.90
11122;DHT22;5615;49.304;10.576;2023-08-30T09:53:26;19.90;99.90
11122;DHT22;5615;49.304;10.576;2023-08-30T09:55:54;20.10;99.90
11122;DHT22;5615;49.304;10.576;2023-08-30T09:58:21;20.00;99.90
11122;DHT22;5615;49.304;10.576;2023-08-30T10:00:49;20.40;99.90
11122;DHT22;5615;49.304;10.576;2023-08-30T10:03:16;19.80;99.90
11122;DHT22;5615;49.304;10.576;2023-08-30T10:05:44;19.70;99.90
11122;DHT22;5615;49.304;10.576;2023-08-30T10:08:12;19.90;99.90
11122;DHT22;5615;49.304;10.576;2023-08-30T10:10:39;19.70;99.90
11122;DHT22;5615;49.304;10.576;2023-08-30T10:13:07;19.30;99.90
11122;DHT22;5615;49.304;10.576;2023-08-30T10:15:35;19.30;99.90
11122;DHT22;5615;49.304;10.576;2023-08-30T10:18:09;19.50;99.90
11122;DHT22;5615;49.304;10.576;2023-08-30T10:20:37;19.30;99.90
11122;DHT22;5615;49.304;10.576;2023-08-30T10:23:04;19.60;99.90
11122;DHT22;5615;49.304;10.576;2023-08-30T10:25:32;19.90;99.90
11122;DHT22;5615;49.304;10.576;2023-08-30T10:27:59;20.10;99.90
11122;DHT22;5615;49.304;10.576;2023-08-30T10:30:27;20.30;99.90
11122;DHT22;5615;49.304;10.576;2023-08-30T10:32:54;20.10;99.90
11122;DHT22;5615;49.304;10.576;2023-08-30T10:35:22;20.30;99.90
11122;DHT22;5615;49.304;10.576;2023-08-30T10:37:55;20.20;99.90
11122;DHT22;5615;49.304;10.576;2023-08-30T10:40:22;20.30;99.90
11122;DHT22;5615;49.304;10.576;2023-08-30T10:42:59;19.90;99.90
11122;DHT22;5615;49.304;10.576;2023-08-30T10:45:25;20.00;99.90
11122;DHT22;5615;49.304;10.576;2023-08-30T10:47:55;20.20;99.90
11122;DHT22;5615;49.304;10.576;2023-08-30T10:50:29;20.80;99.90
11122;DHT22;5615;49.304;10.576;2023-08-30T10:52:56;21.50;99.90
11122;DHT22;5615;49.304;10.576;2023-08-30T10:55:23;21.50;99.90
11122;DHT22;5615;49.304;10.576;2023-08-30T10:57:59;21.90;99.90
11122;DHT22;5615;49.304;10.576;2023-08-30T11:00:28;22.50;99.90
11122;DHT22;5615;49.304;10.576;2023-08-30T11:02:54;23.30;99.90
11122;DHT22;5615;49.304;10.576;2023-08-30T11:05:22;24.00;99.90
11122;DHT22;5615;49.304;10.576;2023-08-30T11:07:50;24.00;99.90
11122;DHT22;5615;49.304;10.576;2023-08-30T11:10:18;23.60;99.90
11122;DHT22;5615;49.304;10.576;2023-08-30T11:12:46;24.20;99.90
11122;DHT22;5615;49.304;10.576;2023-08-30T11:15:15;23.30;99.90
11122;DHT22;5615;49.304;10.576;2023-08-30T11:17:42;23.10;99.90
11122;DHT22;5615;49.304;10.576;2023-08-30T11:20:10;22.50;99.90
11122;DHT22;5615;49.304;10.576;2023-08-30T11:22:37;23.20;99.90
11122;DHT22;5615;49.304;10.576;2023-08-30T11:25:08;24.70;99.90
11122;DHT22;5615;49.304;10.576;2023-08-30T11:27:35;23.70;99.90
11122;DHT22;5615;49.304;10.576;2023-08-30T11:30:03;23.60;99.90
11122;DHT22;5615;49.304;10.576;2023-08-30T11:32:32;23.80;99.90
11122;DHT22;5615;49.304;10.576;2023-08-30T11:34:59;24.40;99.90
11122;DHT22;5615;49.304;10.576;2023-08-30T11:37:26;24.90;99.90
11122;DHT22;5615;49.304;10.576;2023-08-30T11:39:54;23.80;99.90
11122;DHT22;5615;49.304;10.576;2023-08-30T11:42:23;22.10;99.90
11122;DHT22;5615;49.304;10.576;2023-08-30T11:44:49;21.20;99.90
11122;DHT22;5615;49.304;10.576;2023-08-30T11:47:20;20.90;99.90
11122;DHT22;5615;49.304;10.576;2023-08-30T11:49:48;21.20;99.90
11122;DHT22;5615;49.304;10.576;2023-08-30T11:52:15;21.70;99.90
11122;DHT22;5615;49.304;10.576;2023-08-30T11:54:42;23.30;99.90
11122;DHT22;5615;49.304;10.576;2023-08-30T11:57:09;24.10;99.90
11122;DHT22;5615;49.304;10.576;2023-08-30T11:59:37;22.90;99.90
11122;DHT22;5615;49.304;10.576;2023-08-30T12:02:05;23.10;99.90
11122;DHT22;5615;49.304;10.576;2023-08-30T12:04:32;22.90;99.90
11122;DHT22;5615;49.304;10.576;2023-08-30T12:06:59;21.90;99.90
11122;DHT22;5615;49.304;10.576;2023-08-30T12:09:30;22.10;99.90
11122;DHT22;5615;49.304;10.576;2023-08-30T12:12:05;22.10;99.90
11122;DHT22;5615;49.304;10.576;2023-08-30T12:14:33;21.80;99.90
11122;DHT22;5615;49.304;10.576;2023-08-30T12:17:01;22.40;99.90
11122;DHT22;5615;49.304;10.576;2023-08-30T12:19:29;22.30;99.90
11122;DHT22;5615;49.304;10.576;2023-08-30T12:21:55;22.10;99.90
11122;DHT22;5615;49.304;10.576;2023-08-30T12:24:22;23.40;99.90
11122;DHT22;5615;49.304;10.576;2023-08-30T12:26:49;24.10;99.90
11122;DHT22;5615;49.304;10.576;2023-08-30T12:29:15;24.40;99.90
11122;DHT22;5615;49.304;10.576;2023-08-30T12:31:42;24.00;99.90
11122;DHT22;5615;49.304;10.576;2023-08-30T12:34:09;24.90;99.90
11122;DHT22;5615;49.304;10.576;2023-08-30T12:36:36;24.50;99.90
11122;DHT22;5615;49.304;10.576;2023-08-30T12:39:02;24.90;99.90
11122;DHT22;5615;49.304;10.576;2023-08-30T12:41:29;23.70;99.90
11122;DHT22;5615;49.304;10.576;2023-08-30T12:43:56;23.10;99.90
11122;DHT22;5615;49.304;10.576;2023-08-30T12:46:23;22.70;99.90
11122;DHT22;5615;49.304;10.576;2023-08-30T12:48:50;22.50;99.90
11122;DHT22;5615;49.304;10.576;2023-08-30T12:51:18;21.60;99.90
11122;DHT22;5615;49.304;10.576;2023-08-30T12:53:44;21.70;99.90
11122;DHT22;5615;49.304;10.576;2023-08-30T12:56:11;20.70;99.90
11122;DHT22;5615;49.304;10.576;2023-08-30T12:58:37;20.70;99.90
11122;DHT22;5615;49.304;10.576;2023-08-30T13:01:04;20.70;99.90
11122;DHT22;5615;49.304;10.576;2023-08-30T13:03:31;20.40;99.90
11122;DHT22;5615;49.304;10.576;2023-08-30T13:05:57;20.60;99.90
11122;DHT22;5615;49.304;10.576;2023-08-30T13:08:26;20.60;99.90
11122;DHT22;5615;49.304;10.576;2023-08-30T13:10:52;20.60;99.90
11122;DHT22;5615;49.304;10.576;2023-08-30T13:13:19;20.10;99.90
11122;DHT22;5615;49.304;10.576;2023-08-30T13:15:46;20.50;99.90
11122;DHT22;5615;49.304;10.576;2023-08-30T13:18:13;21.30;99.90
11122;DHT22;5615;49.304;10.576;2023-08-30T13:20:41;22.20;99.90
11122;DHT22;5615;49.304;10.576;2023-08-30T13:23:07;23.70;99.90
11122;DHT22;5615;49.304;10.576;2023-08-30T13:25:38;25.20;99.90
11122;DHT22;5615;49.304;10.576;2023-08-30T13:28:05;26.10;99.90
11122;DHT22;5615;49.304;10.576;2023-08-30T13:30:32;26.00;99.90
11122;DHT22;5615;49.304;10.576;2023-08-30T13:32:59;26.30;99.90
11122;DHT22;5615;49.304;10.576;2023-08-30T13:35:26;26.70;99.90
11122;DHT22;5615;49.304;10.576;2023-08-30T13:37:53;26.70;99.90
11122;DHT22;5615;49.304;10.576;2023-08-30T13:40:19;27.30;99.80
11122;DHT22;5615;49.304;10.576;2023-08-30T13:42:47;26.90;99.90
11122;DHT22;5615;49.304;10.576;2023-08-30T13:45:14;26.10;99.80
11122;DHT22;5615;49.304;10.576;2023-08-30T13:47:41;25.50;99.90
11122;DHT22;5615;49.304;10.576;2023-08-30T13:50:08;25.20;99.90
11122;DHT22;5615;49.304;10.576;2023-08-30T13:52:35;25.80;99.90
11122;DHT22;5615;49.304;10.576;2023-08-30T13:55:01;26.30;99.90
11122;DHT22;5615;49.304;10.576;2023-08-30T13:57:28;25.60;99.90
11122;DHT22;5615;49.304;10.576;2023-08-30T13:59:56;26.10;97.80
11122;DHT22;5615;49.304;10.576;2023-08-30T14:02:23;25.60;98.30
11122;DHT22;5615;49.304;10.576;2023-08-30T14:04:50;25.70;97.60
11122;DHT22;5615;49.304;10.576;2023-08-30T14:07:17;24.90;98.60
11122;DHT22;5615;49.304;10.576;2023-08-30T14:09:43;24.80;99.40
11122;DHT22;5615;49.304;10.576;2023-08-30T14:12:10;25.30;99.30
11122;DHT22;5615;49.304;10.576;2023-08-30T14:14:36;25.40;98.40
11122;DHT22;5615;49.304;10.576;2023-08-30T14:17:04;24.70;98.90
11122;DHT22;5615;49.304;10.576;2023-08-30T14:19:33;23.90;99.40
11122;DHT22;5615;49.304;10.576;2023-08-30T14:22:00;23.60;99.90
11122;DHT22;5615;49.304;10.576;2023-08-30T14:24:29;24.00;99.90
11122;DHT22;5615;49.304;10.576;2023-08-30T14:26:55;24.50;99.90
11122;DHT22;5615;49.304;10.576;2023-08-30T14:29:22;23.80;99.90
11122;DHT22;5615;49.304;10.576;2023-08-30T14:31:49;24.50;99.90
11122;DHT22;5615;49.304;10.576;2023-08-30T14:34:17;24.00;99.90
11122;DHT22;5615;49.304;10.576;2023-08-30T14:36:43;25.00;99.70
11122;DHT22;5615;49.304;10.576;2023-08-30T14:39:11;24.00;99.90
11122;DHT22;5615;49.304;10.576;2023-08-30T14:41:38;23.60;99.90
11122;DHT22;5615;49.304;10.576;2023-08-30T14:44:05;22.90;99.90
11122;DHT22;5615;49.304;10.576;2023-08-30T14:46:33;22.60;99.90
11122;DHT22;5615;49.304;10.576;2023-08-30T14:48:59;22.30;99.90
11122;DHT22;5615;49.304;10.576;2023-08-30T14:51:27;23.50;99.90
11122;DHT22;5615;49.304;10.576;2023-08-30T14:53:54;23.40;99.90
11122;DHT22;5615;49.304;10.576;2023-08-30T14:56:21;23.30;99.90
11122;DHT22;5615;49.304;10.576;2023-08-30T14:58:47;23.00;99.00
11122;DHT22;5615;49.304;10.576;2023-08-30T15:01:16;22.30;99.90
11122;DHT22;5615;49.304;10.576;2023-08-30T15:03:42;21.90;99.90
11122;DHT22;5615;49.304;10.576;2023-08-30T15:06:10;23.10;99.90
11122;DHT22;5615;49.304;10.576;2023-08-30T15:08:38;24.00;99.90
11122;DHT22;5615;49.304;10.576;2023-08-30T15:11:05;24.00;99.80
11122;DHT22;5615;49.304;10.576;2023-08-30T15:13:33;22.60;99.90
11122;DHT22;5615;49.304;10.576;2023-08-30T15:16:00;23.80;99.90
11122;DHT22;5615;49.304;10.576;2023-08-30T15:18:27;24.50;99.30
11122;DHT22;5615;49.304;10.576;2023-08-30T15:20:53;25.50;98.90
11122;DHT22;5615;49.304;10.576;2023-08-30T15:23:21;25.50;98.00
11122;DHT22;5615;49.304;10.576;2023-08-30T15:25:49;25.90;98.20
11122;DHT22;5615;49.304;10.576;2023-08-30T15:28:16;27.50;96.50
11122;DHT22;5615;49.304;10.576;2023-08-30T15:30:43;27.70;96.60